Weather at Dick Taylor Airstrip [CLOSED]

Public forecast

Using degrees Fahrenheit for public forecast. Weather courtesy of forecast.io.

Closest aviation weather report (METAR) to Dick Taylor Airstrip

Closest report is Twentynine Palms Strategic Expeditionary Landing Field, 41.1 nm (76.1 km) SSW. Retrieved 2021/06/13 17:56 UTC (18 minutes ago):

KNXP 131756Z AUTO A2995 RMK AO2 SLPNO 54000 PWINO TSNO

Closest aviation forecast (TAF) to Dick Taylor Airstrip

Forecast is more than 12 hours old.

Closest forecast is Twentynine Palms Strategic Expeditionary Landing Field, 41.1 nm (76.1 km) SSW. Retrieved 2013/03/21 03:00 UTC (8 years ago):

TAF COR KNXP 210300Z 2103/2203 30020G29KT 9999 SCT120 BKN200 520009 521809 522709 QNH2987INS BECMG 2116/2118 31010KT SCT200 521809 522709 QNH2990INS TX15/2114Z TN25/2122Z COR 0756